Time;durP1;ratioP1;P1;durP2;ratioP2;P2;SDS_P1;SDS_P2;PMS_P1;PMS_P2;Temp;Humidity;BMP_temperature;BMP_pressure;BME280_temperature;BME280_humidity;BME280_pressure;Samples;Min_cycle;Max_cycle;Signal;HPM_P1;HPM_P2
2020/12/19 00:01:01;;;;;;;12.55;11.50;;;1.10;75.40;;;;;;4993891;29;20200;-73
2020/12/19 00:03:33;;;;;;;12.13;11.13;;;1.10;75.40;;;;;;4990630;29;20053;-73
2020/12/19 00:06:08;;;;;;;12.20;11.20;;;1.10;75.00;;;;;;4993026;29;20117;-72
2020/12/19 00:08:39;;;;;;;11.45;10.45;;;1.10;75.30;;;;;;4993175;29;20049;-74
2020/12/19 00:11:10;;;;;;;11.40;10.50;;;1.00;78.10;;;;;;4989976;29;20612;-73
2020/12/19 00:13:42;;;;;;;11.93;10.85;;;1.00;76.60;;;;;;5004330;29;20417;-73
2020/12/19 00:16:16;;;;;;;12.25;11.25;;;1.00;76.60;;;;;;4979282;29;20060;-73
2020/12/19 00:18:47;;;;;;;12.43;11.32;;;0.90;76.20;;;;;;4989447;29;20047;-73
2020/12/19 00:21:19;;;;;;;12.40;11.40;;;0.90;75.80;;;;;;4991791;29;20138;-72
2020/12/19 00:23:50;;;;;;;11.63;10.63;;;0.90;75.50;;;;;;4993207;29;20050;-73
2020/12/19 00:26:21;;;;;;;11.32;10.48;;;0.90;75.90;;;;;;4990840;29;20046;-73
2020/12/19 00:28:53;;;;;;;11.30;10.45;;;0.90;77.40;;;;;;4990360;29;20107;-73
2020/12/19 00:31:25;;;;;;;11.63;10.73;;;1.00;79.70;;;;;;4993444;29;20471;-73
2020/12/19 00:33:57;;;;;;;12.05;11.15;;;1.00;80.20;;;;;;4993190;29;20046;-73
2020/12/19 00:36:28;;;;;;;11.60;10.60;;;1.10;80.20;;;;;;4989872;29;20137;-73
2020/12/19 00:39:00;;;;;;;11.48;10.68;;;1.20;80.30;;;;;;4990556;29;20053;-74
2020/12/19 00:41:32;;;;;;;11.95;11.15;;;1.30;79.70;;;;;;4993429;29;20053;-73
2020/12/19 00:44:03;;;;;;;11.55;10.65;;;1.40;79.40;;;;;;4988735;29;20050;-73
2020/12/19 00:46:34;;;;;;;11.82;10.93;;;1.40;79.60;;;;;;4991472;29;20058;-73
2020/12/19 00:49:06;;;;;;;11.30;10.50;;;1.40;79.60;;;;;;4989909;29;20073;-73
2020/12/19 00:51:37;;;;;;;11.90;10.90;;;1.40;79.50;;;;;;4990925;29;20053;-73
2020/12/19 00:54:09;;;;;;;11.98;11.05;;;1.40;78.10;;;;;;5006686;29;20458;-73
2020/12/19 00:56:40;;;;;;;11.63;10.73;;;1.40;76.30;;;;;;4993189;29;20053;-73
2020/12/19 00:59:12;;;;;;;12.98;11.88;;;1.30;76.00;;;;;;4992824;29;20432;-73
2020/12/19 01:01:43;;;;;;;12.02;11.13;;;1.20;76.50;;;;;;4988327;29;20054;-74
2020/12/19 01:04:15;;;;;;;11.88;10.98;;;1.20;75.80;;;;;;4990961;29;20061;-74
2020/12/19 01:06:46;;;;;;;11.32;10.43;;;1.20;75.80;;;;;;4988776;29;20091;-74
2020/12/19 01:09:18;;;;;;;11.70;10.80;;;1.20;77.80;;;;;;4989364;29;20070;-73
2020/12/19 01:11:49;;;;;;;11.65;10.75;;;1.20;79.60;;;;;;4991073;29;20784;-73
2020/12/19 01:14:21;;;;;;;12.27;11.38;;;1.30;79.80;;;;;;4991605;29;20118;-72
2020/12/19 01:16:52;;;;;;;11.93;11.02;;;1.30;79.60;;;;;;4990949;29;20114;-72
2020/12/19 01:19:25;;;;;;;11.77;10.88;;;1.30;79.80;;;;;;4989803;29;20065;-72
2020/12/19 01:21:56;;;;;;;11.70;10.80;;;1.30;79.50;;;;;;4994339;29;20042;-72
2020/12/19 01:24:27;;;;;;;12.00;11.18;;;1.30;78.30;;;;;;4990490;29;20088;-72
2020/12/19 01:26:59;;;;;;;11.70;10.80;;;1.40;78.80;;;;;;4987773;29;20122;-72
2020/12/19 01:29:31;;;;;;;11.65;10.85;;;1.30;78.50;;;;;;4997575;29;20116;-70
2020/12/19 01:32:02;;;;;;;11.93;11.02;;;1.30;79.60;;;;;;4989241;29;20046;-71
2020/12/19 01:34:34;;;;;;;12.30;11.40;;;1.40;79.60;;;;;;4989347;29;20110;-71
2020/12/19 01:37:05;;;;;;;11.93;11.02;;;1.40;76.60;;;;;;4986289;29;20533;-72
2020/12/19 01:39:37;;;;;;;12.13;11.23;;;1.40;75.30;;;;;;4991682;29;20046;-72
2020/12/19 01:42:08;;;;;;;12.40;11.27;;;1.30;75.10;;;;;;4989875;29;20063;-71
2020/12/19 01:44:40;;;;;;;11.88;10.88;;;1.30;75.40;;;;;;4991740;29;20121;-72
2020/12/19 01:47:12;;;;;;;12.15;11.25;;;1.20;75.00;;;;;;4992192;29;20077;-71
2020/12/19 01:49:44;;;;;;;11.50;10.70;;;1.10;75.00;;;;;;4994134;29;20673;-71
2020/12/19 01:52:19;;;;;;;11.90;11.00;;;1.10;76.80;;;;;;4993207;29;20046;-72
2020/12/19 01:54:52;;;;;;;11.75;10.85;;;1.10;75.70;;;;;;4995481;29;20077;-72
2020/12/19 01:57:28;;;;;;;12.55;11.40;;;1.10;78.80;;;;;;4994675;29;20064;-71
2020/12/19 02:00:00;;;;;;;12.25;11.35;;;1.00;76.70;;;;;;5006709;29;20536;-71
2020/12/19 02:02:32;;;;;;;12.00;11.00;;;0.90;76.60;;;;;;4992149;29;20062;-72
2020/12/19 02:05:03;;;;;;;11.98;11.07;;;0.90;76.80;;;;;;4997360;29;20046;-71
2020/12/19 02:07:36;;;;;;;11.38;10.38;;;0.80;78.10;;;;;;4991047;29;20050;-71
2020/12/19 02:10:08;;;;;;;12.55;11.55;;;0.90;80.10;;;;;;4992000;29;20042;-71
2020/12/19 02:12:39;;;;;;;11.52;10.63;;;0.90;77.80;;;;;;4999455;29;20049;-71
2020/12/19 02:15:11;;;;;;;12.00;11.10;;;0.90;77.00;;;;;;4995337;29;20046;-70
2020/12/19 02:17:42;;;;;;;11.57;10.70;;;0.90;76.30;;;;;;4993390;29;20050;-71
2020/12/19 02:20:15;;;;;;;11.30;10.50;;;0.80;77.10;;;;;;4993061;29;20069;-71
2020/12/19 02:22:47;;;;;;;11.23;10.38;;;0.90;79.40;;;;;;4992759;29;20061;-71
2020/12/19 02:25:21;;;;;;;11.43;10.52;;;0.90;80.00;;;;;;4993182;29;20073;-71
2020/12/19 02:27:53;;;;;;;11.88;10.98;;;1.00;80.10;;;;;;5009609;29;20045;-70
2020/12/19 02:30:24;;;;;;;11.85;10.95;;;1.00;77.90;;;;;;4993170;29;20050;-71
2020/12/19 02:32:56;;;;;;;11.73;10.82;;;1.00;75.60;;;;;;4993557;29;20046;-71
2020/12/19 02:35:28;;;;;;;11.55;10.65;;;0.90;74.40;;;;;;4992022;29;20057;-71
2020/12/19 02:38:00;;;;;;;12.35;11.20;;;0.70;75.90;;;;;;4993023;29;20759;-71
2020/12/19 02:40:32;;;;;;;11.80;10.90;;;0.60;76.50;;;;;;4992896;29;20062;-71
2020/12/19 02:43:03;;;;;;;11.98;10.88;;;0.70;77.00;;;;;;4994677;29;20936;-71
2020/12/19 02:45:35;;;;;;;11.23;10.43;;;0.70;77.70;;;;;;4993307;29;20149;-71
2020/12/19 02:48:06;;;;;;;11.20;10.30;;;0.70;78.40;;;;;;4995730;29;20115;-71
2020/12/19 02:50:39;;;;;;;10.95;10.15;;;0.70;80.20;;;;;;4992713;29;20062;-71
2020/12/19 02:53:10;;;;;;;11.38;10.57;;;0.80;80.20;;;;;;4991933;29;20520;-71
2020/12/19 02:55:41;;;;;;;11.43;10.52;;;0.90;80.00;;;;;;4992705;29;20053;-70
2020/12/19 02:58:13;;;;;;;12.07;10.98;;;0.90;76.80;;;;;;4990983;29;20058;-72
2020/12/19 03:00:44;;;;;;;11.50;10.60;;;0.90;75.20;;;;;;4991870;29;20053;-72
2020/12/19 03:03:16;;;;;;;11.60;10.60;;;0.70;76.40;;;;;;4992724;29;20106;-71
2020/12/19 03:05:47;;;;;;;11.57;10.57;;;0.70;79.70;;;;;;4991843;29;20119;-71
2020/12/19 03:08:19;;;;;;;11.55;10.65;;;0.80;79.90;;;;;;4991078;29;20061;-72
2020/12/19 03:10:51;;;;;;;11.40;10.55;;;0.80;78.80;;;;;;4992520;29;20571;-72
2020/12/19 03:13:23;;;;;;;11.82;10.82;;;0.80;78.10;;;;;;4977816;29;20073;-71
2020/12/19 03:15:54;;;;;;;11.90;11.00;;;0.70;76.00;;;;;;4993643;29;20118;-71
2020/12/19 03:18:26;;;;;;;11.48;10.68;;;0.60;76.00;;;;;;4991925;29;20046;-71
2020/12/19 03:20:58;;;;;;;12.23;11.25;;;0.60;76.10;;;;;;4993289;29;20691;-71
2020/12/19 03:23:29;;;;;;;11.20;10.40;;;0.50;76.30;;;;;;4993785;29;20079;-70
2020/12/19 03:26:00;;;;;;;11.00;10.20;;;0.50;77.30;;;;;;4992817;29;20042;-71
2020/12/19 03:28:32;;;;;;;11.43;10.57;;;0.50;78.10;;;;;;4994134;29;20129;-72
2020/12/19 03:31:03;;;;;;;11.20;10.30;;;0.50;77.00;;;;;;4990341;29;20046;-72
2020/12/19 03:33:35;;;;;;;11.60;10.70;;;0.50;75.80;;;;;;5006583;29;20082;-71
2020/12/19 03:36:07;;;;;;;11.40;10.35;;;0.50;76.60;;;;;;4992711;29;20070;-72
2020/12/19 03:38:38;;;;;;;11.95;11.05;;;0.50;76.80;;;;;;4992290;29;20098;-72
2020/12/19 03:41:10;;;;;;;11.63;10.73;;;0.50;76.70;;;;;;4990242;29;20150;-72
2020/12/19 03:43:41;;;;;;;11.18;10.38;;;0.50;76.50;;;;;;4992931;29;20053;-72
2020/12/19 03:46:12;;;;;;;10.90;10.00;;;0.50;77.70;;;;;;5007051;29;20183;-72
2020/12/19 03:48:44;;;;;;;11.23;10.43;;;0.40;77.30;;;;;;4993857;29;20053;-72
2020/12/19 03:51:15;;;;;;;10.85;9.95;;;0.50;76.90;;;;;;4990881;29;20058;-71
2020/12/19 03:53:47;;;;;;;11.13;10.32;;;0.50;79.40;;;;;;4991510;29;20114;-70
2020/12/19 03:56:18;;;;;;;11.55;10.75;;;0.60;80.20;;;;;;4991221;29;20659;-72
2020/12/19 03:58:50;;;;;;;11.45;10.45;;;0.60;80.40;;;;;;4993475;29;20058;-71
2020/12/19 04:01:21;;;;;;;11.50;10.60;;;0.60;78.10;;;;;;4995548;29;20910;-72
2020/12/19 04:03:54;;;;;;;11.00;10.05;;;0.50;75.70;;;;;;4989177;29;20050;-72
2020/12/19 04:06:26;;;;;;;11.25;10.45;;;0.40;76.20;;;;;;4994026;29;20119;-71
2020/12/19 04:08:57;;;;;;;11.43;10.57;;;0.40;77.80;;;;;;4991755;29;20560;-71
2020/12/19 04:11:29;;;;;;;11.50;10.70;;;0.40;79.00;;;;;;4990740;29;20077;-72
2020/12/19 04:14:00;;;;;;;11.60;10.80;;;0.40;80.50;;;;;;4990467;29;20394;-72
2020/12/19 04:16:32;;;;;;;10.93;10.10;;;0.50;80.40;;;;;;4994208;29;20058;-72
2020/12/19 04:19:03;;;;;;;11.18;10.38;;;0.60;80.30;;;;;;4989827;29;20114;-73
2020/12/19 04:21:35;;;;;;;11.18;10.38;;;0.70;78.90;;;;;;4990546;29;21007;-72
2020/12/19 04:24:06;;;;;;;10.98;10.18;;;0.70;78.70;;;;;;4994150;29;20050;-72
2020/12/19 04:26:38;;;;;;;11.50;10.70;;;0.70;78.40;;;;;;4990526;29;20050;-70
2020/12/19 04:29:09;;;;;;;11.27;10.38;;;0.80;79.30;;;;;;4995521;29;20054;-72
2020/12/19 04:31:41;;;;;;;11.50;10.65;;;0.80;79.10;;;;;;4990951;29;20062;-71
2020/12/19 04:34:12;;;;;;;11.32;10.43;;;0.80;79.10;;;;;;5007105;29;20070;-71
2020/12/19 04:36:44;;;;;;;10.88;10.07;;;0.90;79.20;;;;;;4991560;29;20418;-72
2020/12/19 04:39:16;;;;;;;11.48;10.57;;;0.90;79.00;;;;;;5004586;29;20068;-72
2020/12/19 04:41:48;;;;;;;10.80;10.00;;;0.90;78.90;;;;;;4990024;29;20458;-71
2020/12/19 04:44:21;;;;;;;11.18;10.38;;;1.00;78.50;;;;;;5006253;29;20054;-71
2020/12/19 04:46:53;;;;;;;10.63;9.73;;;0.90;76.30;;;;;;4994216;29;20461;-71
2020/12/19 04:49:25;;;;;;;10.75;9.95;;;0.80;74.90;;;;;;4991862;29;20370;-72
2020/12/19 04:51:58;;;;;;;11.02;10.23;;;0.70;75.60;;;;;;4991030;29;20047;-71
2020/12/19 04:54:30;;;;;;;10.38;9.57;;;0.60;76.10;;;;;;4992760;29;20054;-71
2020/12/19 04:57:02;;;;;;;10.80;10.00;;;0.60;76.00;;;;;;4990747;29;20058;-71
2020/12/19 04:59:33;;;;;;;10.73;9.93;;;0.50;76.80;;;;;;4990972;29;20555;-71
2020/12/19 05:02:05;;;;;;;10.85;10.05;;;0.60;79.20;;;;;;4989143;29;20107;-72
2020/12/19 05:04:37;;;;;;;10.70;9.90;;;0.70;79.00;;;;;;4992740;29;20049;-71
2020/12/19 05:07:13;;;;;;;10.85;10.05;;;0.70;78.70;;;;;;4989733;29;20055;-71
2020/12/19 05:09:45;;;;;;;10.70;9.90;;;0.80;78.40;;;;;;4990312;29;20049;-72
2020/12/19 05:12:17;;;;;;;10.25;9.45;;;0.90;78.40;;;;;;5003563;29;20167;-72
2020/12/19 05:14:49;;;;;;;10.55;9.75;;;0.90;78.20;;;;;;4991070;29;20054;-71
2020/12/19 05:17:20;;;;;;;10.85;10.05;;;1.00;75.40;;;;;;4991506;29;20791;-71
2020/12/19 05:19:53;;;;;;;10.95;10.05;;;0.80;76.70;;;;;;4989754;29;20050;-71
2020/12/19 05:22:25;;;;;;;10.45;9.65;;;0.80;77.60;;;;;;4998711;29;20054;-71
2020/12/19 05:24:57;;;;;;;10.43;9.63;;;0.80;77.50;;;;;;4996774;29;20057;-71
2020/12/19 05:27:29;;;;;;;11.05;10.25;;;0.80;74.60;;;;;;4996348;29;20063;-71
2020/12/19 05:30:04;;;;;;;11.05;10.25;;;0.70;74.90;;;;;;4998026;29;20413;-71
2020/12/19 05:32:41;;;;;;;10.55;9.75;;;0.60;76.10;;;;;;4998450;29;20056;-71
2020/12/19 05:35:14;;;;;;;10.77;9.98;;;0.60;78.00;;;;;;4997862;29;20041;-71
2020/12/19 05:38:01;;;;;;;10.70;9.90;;;0.70;78.30;;;;;;5000274;29;20046;-71
2020/12/19 05:40:34;;;;;;;10.95;10.15;;;0.80;77.90;;;;;;4995485;29;20062;-71
2020/12/19 05:43:05;;;;;;;11.60;10.65;;;0.90;78.00;;;;;;4998842;29;20057;-71
2020/12/19 05:45:37;;;;;;;11.50;10.60;;;0.90;74.70;;;;;;4996453;29;20466;-71
2020/12/19 05:48:08;;;;;;;11.57;10.52;;;0.80;74.80;;;;;;4997561;29;20513;-71
2020/12/19 05:50:41;;;;;;;11.00;10.20;;;0.70;75.00;;;;;;4996095;29;20062;-72
2020/12/19 05:53:14;;;;;;;11.32;10.40;;;0.70;74.80;;;;;;4996102;29;20095;-72
2020/12/19 05:55:46;;;;;;;11.35;10.45;;;0.60;74.70;;;;;;4995025;29;20050;-71
2020/12/19 05:58:18;;;;;;;11.75;10.85;;;0.60;75.90;;;;;;4997855;29;20533;-71
2020/12/19 06:00:50;;;;;;;11.50;10.60;;;0.50;76.50;;;;;;4995135;29;20141;-71
2020/12/19 06:03:22;;;;;;;11.40;10.50;;;0.40;74.40;;;;;;4997985;29;20608;-71
2020/12/19 06:05:57;;;;;;;11.38;10.48;;;0.40;75.20;;;;;;4996159;29;20057;-71
2020/12/19 06:08:29;;;;;;;11.57;10.68;;;0.40;75.00;;;;;;4995345;29;20126;-71
2020/12/19 06:11:01;;;;;;;11.20;10.38;;;0.40;74.40;;;;;;4996465;29;20053;-71
2020/12/19 06:13:33;;;;;;;11.55;10.65;;;0.30;74.70;;;;;;5003494;29;20769;-70
2020/12/19 06:16:12;;;;;;;11.43;10.52;;;0.20;74.30;;;;;;4996422;29;20151;-71
2020/12/19 06:19:15;;;;;;;11.15;10.30;;;0.30;74.70;;;;;;4996827;29;20053;-73
2020/12/19 06:21:55;;;;;;;10.82;10.02;;;0.30;74.90;;;;;;5001137;29;20110;-72
2020/12/19 06:24:44;;;;;;;11.77;10.88;;;0.30;75.20;;;;;;4998198;29;20046;-72
2020/12/19 06:27:22;;;;;;;11.60;10.60;;;0.30;77.20;;;;;;4994764;29;20050;-73
2020/12/19 06:29:54;;;;;;;11.60;10.70;;;0.30;76.90;;;;;;4997232;29;20078;-72
2020/12/19 06:32:27;;;;;;;11.60;10.43;;;0.30;77.10;;;;;;4993846;29;20043;-73
2020/12/19 06:35:04;;;;;;;11.27;10.48;;;0.30;77.00;;;;;;4994476;29;20527;-73
2020/12/19 06:37:37;;;;;;;11.82;10.93;;;0.30;77.40;;;;;;4990716;29;20142;-72
2020/12/19 06:40:16;;;;;;;11.80;10.90;;;0.20;74.70;;;;;;4990954;29;20046;-74
2020/12/19 06:43:12;;;;;;;11.70;10.80;;;0.20;75.50;;;;;;4994537;29;20121;-73
2020/12/19 06:45:44;;;;;;;11.25;10.35;;;0.20;74.60;;;;;;4993017;29;20129;-72
2020/12/19 06:48:34;;;;;;;11.10;10.30;;;0.20;74.90;;;;;;5008410;29;20050;-73
2020/12/19 06:51:06;;;;;;;;;;;0.10;75.50;;;;;;4992365;29;20085;-72
2020/12/19 06:53:37;;;;;;;11.20;10.30;;;0.20;76.10;;;;;;4993658;29;19929;-72
2020/12/19 06:56:26;;;;;;;11.80;10.90;;;0.20;74.40;;;;;;4991173;29;20478;-72
2020/12/19 06:59:01;;;;;;;11.65;10.75;;;0.10;74.70;;;;;;4994415;29;20760;-72
2020/12/19 07:01:32;;;;;;;10.52;9.73;;;0.00;75.00;;;;;;4992339;29;20083;-73
2020/12/19 07:04:30;;;;;;;10.10;9.30;;;0.10;76.10;;;;;;4992405;29;20054;-72
2020/12/19 07:07:10;;;;;;;12.30;11.30;;;0.00;77.70;;;;;;4992027;29;20057;-72
2020/12/19 07:09:53;;;;;;;12.30;11.27;;;0.10;76.20;;;;;;4992842;29;20137;-72
2020/12/19 07:12:35;;;;;;;13.88;12.57;;;0.00;75.30;;;;;;4992246;29;20398;-72
2020/12/19 07:15:28;;;;;;;12.35;11.13;;;0.00;74.90;;;;;;4993543;29;20050;-72
2020/12/19 07:17:59;;;;;;;11.88;10.88;;;0.00;74.80;;;;;;4990752;29;20060;-72
2020/12/19 07:20:31;;;;;;;13.95;12.65;;;0.10;75.00;;;;;;4988368;29;20047;-71
2020/12/19 07:23:02;;;;;;;12.32;11.15;;;0.00;75.10;;;;;;4990187;29;20054;-72
2020/12/19 07:25:34;;;;;;;12.43;11.43;;;-0.10;75.30;;;;;;4993240;29;20064;-72
2020/12/19 07:28:05;;;;;;;19.63;15.68;;;0.00;76.20;;;;;;5004780;29;20756;-72
2020/12/19 07:30:40;;;;;;;22.52;16.25;;;0.00;75.70;;;;;;4988362;29;20630;-72
2020/12/19 07:33:12;;;;;;;33.88;20.30;;;0.00;74.60;;;;;;4991102;29;20074;-72
2020/12/19 07:35:43;;;;;;;59.97;29.15;;;-0.20;74.90;;;;;;4990022;29;20390;-72
2020/12/19 07:38:15;;;;;;;30.80;15.90;;;-0.20;74.80;;;;;;4988686;29;20046;-72
2020/12/19 07:40:56;;;;;;;12.25;11.05;;;-0.40;74.80;;;;;;4994784;29;20049;-72
2020/12/19 07:43:28;;;;;;;13.23;11.80;;;-0.50;75.90;;;;;;4988187;29;20053;-72
2020/12/19 07:45:59;;;;;;;14.15;12.65;;;-0.40;76.00;;;;;;4987829;29;20134;-72
2020/12/19 07:48:31;;;;;;;12.43;11.23;;;-0.30;75.90;;;;;;4988720;29;20054;-73
2020/12/19 07:51:07;;;;;;;11.15;10.23;;;-0.30;75.50;;;;;;4985984;29;20050;-72
2020/12/19 07:53:42;;;;;;;12.40;11.15;;;-0.30;75.70;;;;;;4988148;29;20081;-72
2020/12/19 07:56:15;;;;;;;11.73;10.73;;;-0.30;76.00;;;;;;4988453;29;20767;-72
2020/12/19 07:58:47;;;;;;;10.60;9.68;;;-0.20;76.50;;;;;;4987444;29;20118;-72
2020/12/19 08:01:19;;;;;;;11.52;10.38;;;-0.20;77.20;;;;;;4987042;29;20877;-71
2020/12/19 08:03:59;;;;;;;11.57;10.57;;;-0.10;77.30;;;;;;4999674;29;20050;-72
2020/12/19 08:06:42;;;;;;;10.60;9.70;;;0.00;78.70;;;;;;4989421;29;20137;-72
2020/12/19 08:09:32;;;;;;;13.60;12.30;;;0.10;78.80;;;;;;4990164;29;20525;-72
2020/12/19 08:12:04;;;;;;;11.82;10.77;;;0.30;77.40;;;;;;4992300;29;20050;-72
2020/12/19 08:14:36;;;;;;;12.68;11.40;;;0.20;75.40;;;;;;4992627;29;20050;-72
2020/12/19 08:17:12;;;;;;;14.25;12.82;;;0.00;76.10;;;;;;4987743;29;20059;-71
2020/12/19 08:19:48;;;;;;;14.95;13.45;;;0.00;76.20;;;;;;4989043;29;20050;-71
2020/12/19 08:22:20;;;;;;;14.60;13.10;;;0.00;76.00;;;;;;4991567;29;20889;-72
2020/12/19 08:25:03;;;;;;;18.73;15.55;;;0.10;76.80;;;;;;4984903;29;20043;-73
2020/12/19 08:27:40;;;;;;;17.40;14.43;;;0.10;77.10;;;;;;4987662;29;20462;-72
2020/12/19 08:30:15;;;;;;;14.50;13.02;;;0.20;77.10;;;;;;4988738;29;20034;-72
2020/12/19 08:32:58;;;;;;;12.40;11.20;;;0.20;77.00;;;;;;4989386;29;20049;-71
2020/12/19 08:35:52;;;;;;;15.52;13.90;;;0.20;77.80;;;;;;4990992;29;20046;-72
2020/12/19 08:38:26;;;;;;;15.23;13.70;;;0.30;77.20;;;;;;4994495;29;20131;-72
2020/12/19 08:41:02;;;;;;;14.60;13.07;;;0.40;77.10;;;;;;4990291;29;20058;-72
2020/12/19 08:43:39;;;;;;;13.95;12.43;;;0.50;77.00;;;;;;4989935;29;20061;-72
2020/12/19 08:46:13;;;;;;;13.02;11.75;;;0.50;77.00;;;;;;4990906;29;20910;-72
2020/12/19 08:48:45;;;;;;;15.13;13.52;;;0.60;77.00;;;;;;5007199;29;20042;-72
2020/12/19 08:51:18;;;;;;;12.35;11.25;;;0.70;77.50;;;;;;5003848;29;20418;-72
2020/12/19 08:53:50;;;;;;;12.10;11.00;;;0.80;77.60;;;;;;4992565;29;20054;-72
2020/12/19 08:56:27;;;;;;;11.65;10.65;;;0.80;76.30;;;;;;4990965;29;20067;-73
2020/12/19 08:58:59;;;;;;;12.02;10.98;;;0.70;76.50;;;;;;4992561;29;20050;-72
2020/12/19 09:01:31;;;;;;;12.80;11.60;;;0.70;76.00;;;;;;4993176;29;20046;-72
2020/12/19 09:04:09;;;;;;;12.60;11.40;;;0.70;76.30;;;;;;4989904;29;20042;-72
2020/12/19 09:06:49;;;;;;;13.10;11.80;;;0.70;76.80;;;;;;4993890;29;20509;-73
2020/12/19 09:09:28;;;;;;;12.50;11.32;;;0.70;77.50;;;;;;5005818;29;20058;-71
2020/12/19 09:12:10;;;;;;;12.45;11.30;;;0.80;77.50;;;;;;4988652;29;20105;-72
2020/12/19 09:14:41;;;;;;;12.85;11.55;;;0.90;77.30;;;;;;4992721;29;20050;-72
2020/12/19 09:17:29;;;;;;;12.13;10.98;;;0.90;77.80;;;;;;4991569;29;20060;-72
2020/12/19 09:20:05;;;;;;;13.05;10.95;;;1.00;78.20;;;;;;4994751;29;20471;-72
2020/12/19 09:22:36;;;;;;;13.32;11.88;;;1.20;77.90;;;;;;4993341;29;20065;-72
2020/12/19 09:25:07;;;;;;;14.68;12.93;;;1.40;77.70;;;;;;4989710;29;20082;-72
2020/12/19 09:27:39;;;;;;;14.80;13.35;;;1.50;77.50;;;;;;4994496;29;20057;-71
2020/12/19 09:30:11;;;;;;;14.23;12.82;;;1.70;77.20;;;;;;4987780;29;20042;-72
2020/12/19 09:32:42;;;;;;;14.73;13.32;;;1.80;77.00;;;;;;4992533;29;20046;-72
2020/12/19 09:35:14;;;;;;;17.15;14.73;;;2.00;75.90;;;;;;4991454;29;20050;-71
2020/12/19 09:37:45;;;;;;;19.33;16.20;;;2.10;75.90;;;;;;4991845;29;20114;-71
2020/12/19 09:40:32;;;;;;;24.33;18.98;;;2.20;75.30;;;;;;4965233;29;20664;-72
2020/12/19 09:43:04;;;;;;;108.82;21.70;;;2.30;74.30;;;;;;4991987;29;20133;-72
2020/12/19 09:45:37;;;;;;;1139.90;138.15;;;2.40;73.10;;;;;;4989475;29;20846;-72
2020/12/19 09:48:08;;;;;;;112.18;20.95;;;2.50;75.10;;;;;;4989745;29;20130;-71
2020/12/19 09:50:40;;;;;;;158.32;23.65;;;2.50;73.70;;;;;;4991827;29;20107;-73
2020/12/19 09:53:11;;;;;;;36.00;14.18;;;2.60;74.50;;;;;;4996504;29;20487;-71
2020/12/19 09:55:42;;;;;;;18.15;11.73;;;2.60;73.70;;;;;;4991145;29;20143;-71
2020/12/19 09:58:15;;;;;;;19.65;12.50;;;2.70;74.20;;;;;;4989497;29;20059;-71
2020/12/19 10:00:46;;;;;;;13.07;11.75;;;2.80;74.60;;;;;;4988792;29;20107;-71
2020/12/19 10:03:19;;;;;;;13.80;12.40;;;2.90;74.50;;;;;;4989647;29;20134;-72
2020/12/19 10:05:50;;;;;;;139.82;22.88;;;3.00;74.60;;;;;;4990118;29;20176;-71
2020/12/19 10:08:23;;;;;;;73.72;18.08;;;3.10;74.00;;;;;;4996487;29;20771;-71
2020/12/19 10:10:55;;;;;;;34.13;13.05;;;3.20;74.00;;;;;;4994519;29;20106;-71
2020/12/19 10:13:26;;;;;;;13.90;12.60;;;3.30;73.30;;;;;;4994095;29;20431;-72
2020/12/19 10:15:58;;;;;;;12.02;10.88;;;3.40;73.30;;;;;;5002984;29;20054;-72
2020/12/19 10:18:29;;;;;;;11.35;10.38;;;3.30;73.30;;;;;;4995118;29;20064;-72
2020/12/19 10:21:01;;;;;;;12.00;10.90;;;3.30;73.50;;;;;;4993943;29;20404;-71
2020/12/19 10:23:32;;;;;;;1999.90;426.85;;;3.40;74.00;;;;;;4993257;29;20060;-71
2020/12/19 10:26:04;;;;;;;890.13;105.15;;;3.50;73.90;;;;;;4992758;29;20046;-72
2020/12/19 10:28:37;;;;;;;28.42;12.38;;;3.60;74.10;;;;;;4996507;29;20061;-72
2020/12/19 10:31:09;;;;;;;12.57;11.27;;;3.70;73.30;;;;;;4991903;29;20058;-72
2020/12/19 10:33:40;;;;;;;12.15;11.05;;;3.80;72.90;;;;;;4992103;29;20058;-71
2020/12/19 10:36:14;;;;;;;19.10;17.48;;;3.80;71.60;;;;;;4993238;29;20054;-72
2020/12/19 10:38:46;;;;;;;12.70;11.20;;;3.90;71.90;;;;;;4993167;29;20129;-74
2020/12/19 10:41:19;;;;;;;18.73;13.55;;;3.90;72.60;;;;;;4993091;29;20050;-73
2020/12/19 10:43:55;;;;;;;13.60;12.50;;;4.00;73.10;;;;;;4987012;29;20129;-72
2020/12/19 10:46:28;;;;;;;13.27;11.93;;;4.10;73.00;;;;;;5008021;29;20099;-72
2020/12/19 10:48:59;;;;;;;13.23;11.23;;;4.30;73.40;;;;;;4994187;29;20106;-72
2020/12/19 10:51:31;;;;;;;12.18;11.18;;;4.30;73.30;;;;;;4992739;29;20595;-72
2020/12/19 10:54:02;;;;;;;14.38;11.95;;;4.50;72.80;;;;;;4994105;29;20042;-71
2020/12/19 10:56:34;;;;;;;12.13;11.13;;;4.60;72.60;;;;;;4996060;29;20057;-73
2020/12/19 10:59:05;;;;;;;13.25;11.80;;;4.60;71.70;;;;;;4993542;29;20050;-72
2020/12/19 11:01:37;;;;;;;13.40;12.10;;;4.60;72.00;;;;;;4991667;29;20756;-73
2020/12/19 11:04:08;;;;;;;12.38;11.38;;;4.70;69.90;;;;;;4991367;29;20050;-73
2020/12/19 11:06:39;;;;;;;13.25;12.15;;;4.80;70.60;;;;;;4996611;29;20516;-73
2020/12/19 11:09:13;;;;;;;12.48;11.48;;;4.80;70.90;;;;;;4991568;29;20054;-74
2020/12/19 11:11:52;;;;;;;12.65;11.65;;;4.90;70.70;;;;;;4993402;29;20076;-73
2020/12/19 11:14:25;;;;;;;13.30;12.23;;;5.00;70.80;;;;;;5007186;29;20197;-73
2020/12/19 11:16:57;;;;;;;13.70;12.52;;;5.00;71.10;;;;;;4989416;29;20058;-73
2020/12/19 11:19:40;;;;;;;17.38;13.27;;;5.10;71.20;;;;;;4993505;29;20500;-72
2020/12/19 11:22:12;;;;;;;13.13;11.93;;;5.20;70.30;;;;;;4994810;29;20050;-72
2020/12/19 11:24:43;;;;;;;13.45;12.35;;;5.30;70.30;;;;;;4996335;29;20038;-73
2020/12/19 11:27:14;;;;;;;13.20;12.20;;;5.40;70.30;;;;;;4994128;29;20119;-72
2020/12/19 11:29:46;;;;;;;13.63;12.23;;;5.40;69.80;;;;;;4993705;29;20054;-72
2020/12/19 11:32:17;;;;;;;13.60;12.40;;;5.50;70.40;;;;;;4991027;29;20140;-72
2020/12/19 11:34:49;;;;;;;13.25;12.15;;;5.60;70.10;;;;;;4996893;29;20509;-72
2020/12/19 11:37:20;;;;;;;12.32;11.32;;;5.70;70.00;;;;;;4996546;29;20091;-72
2020/12/19 11:39:53;;;;;;;12.73;11.73;;;5.70;69.40;;;;;;4991927;29;20173;-72
2020/12/19 11:42:25;;;;;;;12.38;11.38;;;5.80;69.40;;;;;;4987134;29;20773;-72
2020/12/19 11:44:56;;;;;;;12.18;11.27;;;5.80;69.00;;;;;;4994118;29;20466;-72
2020/12/19 11:47:28;;;;;;;12.35;11.27;;;5.80;68.50;;;;;;4986693;29;20462;-72
2020/12/19 11:49:59;;;;;;;12.60;11.70;;;5.90;69.00;;;;;;4989824;29;20058;-72
2020/12/19 11:52:31;;;;;;;12.77;11.77;;;5.90;68.80;;;;;;4992390;29;20046;-72
2020/12/19 11:55:02;;;;;;;12.48;11.57;;;6.00;68.70;;;;;;4994456;29;20047;-72
2020/12/19 11:57:34;;;;;;;12.95;11.95;;;6.00;68.30;;;;;;4992453;29;20046;-72
2020/12/19 12:00:06;;;;;;;12.98;11.98;;;6.00;68.20;;;;;;5005597;29;20054;-72
2020/12/19 12:02:37;;;;;;;12.70;11.70;;;6.00;67.90;;;;;;4994618;29;20714;-72
2020/12/19 12:05:09;;;;;;;12.82;11.73;;;6.00;68.10;;;;;;4994732;29;20523;-72
2020/12/19 12:07:40;;;;;;;12.77;11.57;;;6.00;68.40;;;;;;4992761;29;20084;-71
2020/12/19 12:10:12;;;;;;;12.63;11.63;;;6.10;68.30;;;;;;4990621;29;20133;-72
2020/12/19 12:12:43;;;;;;;13.73;12.60;;;6.10;68.40;;;;;;4990614;29;20542;-72
2020/12/19 12:15:15;;;;;;;12.90;11.90;;;6.20;68.30;;;;;;4991903;29;20061;-72
2020/12/19 12:17:46;;;;;;;13.40;12.35;;;6.20;67.80;;;;;;4991801;29;20070;-72
2020/12/19 12:20:19;;;;;;;12.57;11.57;;;6.20;67.70;;;;;;4989630;29;20049;-72
2020/12/19 12:22:50;;;;;;;13.18;12.10;;;6.20;67.60;;;;;;4990820;29;20533;-72
2020/12/19 12:25:22;;;;;;;12.95;11.85;;;6.20;67.00;;;;;;4991252;29;20157;-72
2020/12/19 12:27:53;;;;;;;12.65;11.65;;;6.20;67.40;;;;;;4991811;29;20076;-72
2020/12/19 12:30:25;;;;;;;12.45;11.52;;;6.20;67.20;;;;;;4991065;29;20053;-72
2020/12/19 12:32:56;;;;;;;12.45;11.55;;;6.20;67.60;;;;;;4990869;29;20111;-72
2020/12/19 12:35:27;;;;;;;12.18;11.27;;;6.20;67.80;;;;;;4989237;29;20068;-72
2020/12/19 12:37:59;;;;;;;11.77;10.90;;;6.20;67.40;;;;;;4991381;29;20134;-75
2020/12/19 12:40:31;;;;;;;12.15;11.15;;;6.20;67.30;;;;;;4993230;29;20054;-74
2020/12/19 12:43:03;;;;;;;12.75;11.75;;;6.20;67.70;;;;;;4992860;29;20117;-73
2020/12/19 12:45:38;;;;;;;12.88;11.88;;;6.20;67.20;;;;;;4990024;29;20058;-73
2020/12/19 12:48:10;;;;;;;12.23;11.32;;;6.20;67.60;;;;;;4986519;29;20161;-73
2020/12/19 12:50:41;;;;;;;13.10;11.93;;;6.20;67.50;;;;;;4992796;29;20148;-73
2020/12/19 12:53:13;;;;;;;12.52;11.52;;;6.20;67.20;;;;;;4993620;29;20114;-74
2020/12/19 12:55:44;;;;;;;12.80;11.80;;;6.20;67.10;;;;;;4992260;29;20068;-73
2020/12/19 12:58:16;;;;;;;12.30;11.40;;;6.20;67.20;;;;;;4992171;29;20058;-74
2020/12/19 13:00:48;;;;;;;13.95;12.75;;;6.20;67.00;;;;;;4989069;29;20562;-75
2020/12/19 13:03:19;;;;;;;12.13;11.23;;;6.10;67.20;;;;;;4989948;29;20517;-72
2020/12/19 13:05:51;;;;;;;11.90;11.00;;;6.10;67.20;;;;;;4991128;29;20123;-74
2020/12/19 13:08:23;;;;;;;11.70;10.80;;;6.00;67.40;;;;;;4992704;29;20058;-74